sensor_id;sensor_type;location;lat;lon;timestamp;P1;durP1;ratioP1;P2;durP2;ratioP2
28934;SDS011;16044;52.726;-2.108;2023-04-06T00:01:00;26.10;;;18.50;;
28934;SDS011;16044;52.726;-2.108;2023-04-06T00:03:27;21.90;;;16.83;;
28934;SDS011;16044;52.726;-2.108;2023-04-06T00:05:54;25.00;;;17.92;;
28934;SDS011;16044;52.726;-2.108;2023-04-06T00:08:22;24.75;;;18.73;;
28934;SDS011;16044;52.726;-2.108;2023-04-06T00:10:49;26.83;;;19.05;;
28934;SDS011;16044;52.726;-2.108;2023-04-06T00:13:16;22.38;;;17.75;;
28934;SDS011;16044;52.726;-2.108;2023-04-06T00:15:44;24.67;;;18.30;;
28934;SDS011;16044;52.726;-2.108;2023-04-06T00:18:11;21.85;;;17.10;;
28934;SDS011;16044;52.726;-2.108;2023-04-06T00:20:38;23.92;;;17.27;;
28934;SDS011;16044;52.726;-2.108;2023-04-06T00:23:05;26.08;;;18.48;;
28934;SDS011;16044;52.726;-2.108;2023-04-06T00:25:32;24.20;;;16.52;;
28934;SDS011;16044;52.726;-2.108;2023-04-06T00:27:59;20.95;;;16.20;;
28934;SDS011;16044;52.726;-2.108;2023-04-06T00:30:26;21.00;;;15.68;;
28934;SDS011;16044;52.726;-2.108;2023-04-06T00:32:53;23.42;;;16.88;;
28934;SDS011;16044;52.726;-2.108;2023-04-06T00:35:20;21.38;;;15.52;;
28934;SDS011;16044;52.726;-2.108;2023-04-06T00:37:47;22.27;;;17.17;;
28934;SDS011;16044;52.726;-2.108;2023-04-06T00:40:14;18.13;;;14.85;;
28934;SDS011;16044;52.726;-2.108;2023-04-06T00:42:42;24.73;;;17.52;;
28934;SDS011;16044;52.726;-2.108;2023-04-06T00:45:09;21.33;;;15.73;;
28934;SDS011;16044;52.726;-2.108;2023-04-06T00:47:37;23.15;;;17.52;;
28934;SDS011;16044;52.726;-2.108;2023-04-06T00:50:04;22.50;;;17.00;;
28934;SDS011;16044;52.726;-2.108;2023-04-06T00:52:33;19.88;;;14.98;;
28934;SDS011;16044;52.726;-2.108;2023-04-06T00:55:02;21.67;;;17.05;;
28934;SDS011;16044;52.726;-2.108;2023-04-06T00:57:30;20.98;;;16.25;;
28934;SDS011;16044;52.726;-2.108;2023-04-06T00:59:58;18.48;;;15.23;;
28934;SDS011;16044;52.726;-2.108;2023-04-06T01:02:25;19.80;;;15.10;;
28934;SDS011;16044;52.726;-2.108;2023-04-06T01:04:52;21.02;;;16.27;;
28934;SDS011;16044;52.726;-2.108;2023-04-06T01:07:20;25.17;;;17.42;;
28934;SDS011;16044;52.726;-2.108;2023-04-06T01:09:47;23.88;;;17.52;;
28934;SDS011;16044;52.726;-2.108;2023-04-06T01:12:14;20.63;;;15.85;;
28934;SDS011;16044;52.726;-2.108;2023-04-06T01:14:41;24.70;;;17.65;;
28934;SDS011;16044;52.726;-2.108;2023-04-06T01:17:08;20.85;;;16.60;;
28934;SDS011;16044;52.726;-2.108;2023-04-06T01:19:36;22.02;;;16.65;;
28934;SDS011;16044;52.726;-2.108;2023-04-06T01:22:03;20.00;;;14.88;;
28934;SDS011;16044;52.726;-2.108;2023-04-06T01:24:30;21.35;;;15.65;;
28934;SDS011;16044;52.726;-2.108;2023-04-06T01:26:58;23.98;;;17.70;;
28934;SDS011;16044;52.726;-2.108;2023-04-06T01:29:25;22.35;;;17.02;;
28934;SDS011;16044;52.726;-2.108;2023-04-06T01:31:52;23.95;;;16.83;;
28934;SDS011;16044;52.726;-2.108;2023-04-06T01:34:19;22.73;;;16.52;;
28934;SDS011;16044;52.726;-2.108;2023-04-06T01:36:46;23.70;;;17.77;;
28934;SDS011;16044;52.726;-2.108;2023-04-06T01:39:13;19.60;;;15.63;;
28934;SDS011;16044;52.726;-2.108;2023-04-06T01:41:41;24.80;;;17.67;;
28934;SDS011;16044;52.726;-2.108;2023-04-06T01:44:08;21.60;;;16.58;;
28934;SDS011;16044;52.726;-2.108;2023-04-06T01:46:34;21.35;;;15.93;;
28934;SDS011;16044;52.726;-2.108;2023-04-06T01:49:01;18.92;;;15.52;;
28934;SDS011;16044;52.726;-2.108;2023-04-06T01:51:28;20.60;;;15.85;;
28934;SDS011;16044;52.726;-2.108;2023-04-06T01:53:56;23.88;;;15.48;;
28934;SDS011;16044;52.726;-2.108;2023-04-06T01:56:23;26.80;;;17.27;;
28934;SDS011;16044;52.726;-2.108;2023-04-06T01:58:50;21.45;;;16.67;;
28934;SDS011;16044;52.726;-2.108;2023-04-06T02:01:18;24.60;;;17.63;;
28934;SDS011;16044;52.726;-2.108;2023-04-06T02:03:45;25.67;;;18.50;;
28934;SDS011;16044;52.726;-2.108;2023-04-06T02:06:12;24.25;;;17.70;;
28934;SDS011;16044;52.726;-2.108;2023-04-06T02:08:38;22.13;;;16.98;;
28934;SDS011;16044;52.726;-2.108;2023-04-06T02:11:06;23.30;;;16.38;;
28934;SDS011;16044;52.726;-2.108;2023-04-06T02:13:33;21.70;;;16.33;;
28934;SDS011;16044;52.726;-2.108;2023-04-06T02:16:00;24.20;;;18.05;;
28934;SDS011;16044;52.726;-2.108;2023-04-06T02:18:31;20.25;;;15.75;;
28934;SDS011;16044;52.726;-2.108;2023-04-06T02:20:58;19.42;;;15.40;;
28934;SDS011;16044;52.726;-2.108;2023-04-06T02:23:25;22.95;;;17.45;;
28934;SDS011;16044;52.726;-2.108;2023-04-06T02:25:53;25.33;;;18.15;;
28934;SDS011;16044;52.726;-2.108;2023-04-06T02:28:19;22.35;;;16.42;;
28934;SDS011;16044;52.726;-2.108;2023-04-06T02:30:46;23.40;;;17.63;;
28934;SDS011;16044;52.726;-2.108;2023-04-06T02:33:14;23.65;;;17.92;;
28934;SDS011;16044;52.726;-2.108;2023-04-06T02:35:41;19.13;;;14.50;;
28934;SDS011;16044;52.726;-2.108;2023-04-06T02:38:08;25.33;;;18.55;;
28934;SDS011;16044;52.726;-2.108;2023-04-06T02:40:35;24.65;;;18.23;;
28934;SDS011;16044;52.726;-2.108;2023-04-06T02:43:01;19.65;;;14.82;;
28934;SDS011;16044;52.726;-2.108;2023-04-06T02:45:28;22.17;;;17.05;;
28934;SDS011;16044;52.726;-2.108;2023-04-06T02:47:55;21.40;;;16.13;;
28934;SDS011;16044;52.726;-2.108;2023-04-06T02:50:22;23.25;;;16.27;;
28934;SDS011;16044;52.726;-2.108;2023-04-06T02:52:49;22.42;;;16.90;;
28934;SDS011;16044;52.726;-2.108;2023-04-06T02:55:17;21.58;;;16.60;;
28934;SDS011;16044;52.726;-2.108;2023-04-06T02:57:47;22.05;;;16.73;;
28934;SDS011;16044;52.726;-2.108;2023-04-06T03:00:14;19.58;;;14.82;;
28934;SDS011;16044;52.726;-2.108;2023-04-06T03:02:42;23.45;;;16.58;;
28934;SDS011;16044;52.726;-2.108;2023-04-06T03:05:09;19.98;;;15.48;;
28934;SDS011;16044;52.726;-2.108;2023-04-06T03:07:36;22.83;;;16.50;;
28934;SDS011;16044;52.726;-2.108;2023-04-06T03:10:03;20.48;;;15.60;;
28934;SDS011;16044;52.726;-2.108;2023-04-06T03:12:30;18.65;;;13.85;;
28934;SDS011;16044;52.726;-2.108;2023-04-06T03:14:57;23.40;;;16.45;;
28934;SDS011;16044;52.726;-2.108;2023-04-06T03:17:24;23.98;;;16.30;;
28934;SDS011;16044;52.726;-2.108;2023-04-06T03:19:51;21.85;;;16.02;;
28934;SDS011;16044;52.726;-2.108;2023-04-06T03:22:19;20.05;;;14.82;;
28934;SDS011;16044;52.726;-2.108;2023-04-06T03:24:47;23.00;;;16.77;;
28934;SDS011;16044;52.726;-2.108;2023-04-06T03:27:14;24.65;;;17.45;;
28934;SDS011;16044;52.726;-2.108;2023-04-06T03:29:41;20.58;;;15.88;;
28934;SDS011;16044;52.726;-2.108;2023-04-06T03:32:08;25.17;;;18.10;;
28934;SDS011;16044;52.726;-2.108;2023-04-06T03:34:37;20.52;;;15.35;;
28934;SDS011;16044;52.726;-2.108;2023-04-06T03:37:05;22.23;;;16.33;;
28934;SDS011;16044;52.726;-2.108;2023-04-06T03:39:36;22.65;;;17.15;;
28934;SDS011;16044;52.726;-2.108;2023-04-06T03:42:03;24.27;;;17.35;;
28934;SDS011;16044;52.726;-2.108;2023-04-06T03:44:30;23.52;;;16.45;;
28934;SDS011;16044;52.726;-2.108;2023-04-06T03:46:57;20.63;;;14.90;;
28934;SDS011;16044;52.726;-2.108;2023-04-06T03:49:27;22.80;;;16.92;;
28934;SDS011;16044;52.726;-2.108;2023-04-06T03:51:55;23.75;;;16.27;;
28934;SDS011;16044;52.726;-2.108;2023-04-06T03:54:23;19.73;;;14.80;;
28934;SDS011;16044;52.726;-2.108;2023-04-06T03:56:50;21.15;;;15.18;;
28934;SDS011;16044;52.726;-2.108;2023-04-06T03:59:17;18.20;;;13.40;;
28934;SDS011;16044;52.726;-2.108;2023-04-06T04:01:44;16.88;;;13.13;;
28934;SDS011;16044;52.726;-2.108;2023-04-06T04:04:11;19.55;;;14.75;;
28934;SDS011;16044;52.726;-2.108;2023-04-06T04:06:38;25.30;;;17.00;;
28934;SDS011;16044;52.726;-2.108;2023-04-06T04:09:05;18.90;;;14.05;;
28934;SDS011;16044;52.726;-2.108;2023-04-06T04:11:32;22.83;;;16.38;;
28934;SDS011;16044;52.726;-2.108;2023-04-06T04:13:59;22.45;;;15.43;;
28934;SDS011;16044;52.726;-2.108;2023-04-06T04:16:26;23.60;;;15.35;;
28934;SDS011;16044;52.726;-2.108;2023-04-06T04:18:53;22.30;;;15.35;;
28934;SDS011;16044;52.726;-2.108;2023-04-06T04:21:20;19.55;;;13.85;;
28934;SDS011;16044;52.726;-2.108;2023-04-06T04:23:47;18.20;;;13.02;;
28934;SDS011;16044;52.726;-2.108;2023-04-06T04:26:14;17.60;;;13.13;;
28934;SDS011;16044;52.726;-2.108;2023-04-06T04:28:41;15.73;;;12.10;;
28934;SDS011;16044;52.726;-2.108;2023-04-06T04:31:08;17.10;;;12.85;;
28934;SDS011;16044;52.726;-2.108;2023-04-06T04:33:35;16.40;;;11.23;;
28934;SDS011;16044;52.726;-2.108;2023-04-06T04:36:02;18.05;;;13.55;;
28934;SDS011;16044;52.726;-2.108;2023-04-06T04:38:30;16.73;;;13.23;;
28934;SDS011;16044;52.726;-2.108;2023-04-06T04:40:57;15.88;;;11.80;;
28934;SDS011;16044;52.726;-2.108;2023-04-06T04:43:24;17.55;;;12.98;;
28934;SDS011;16044;52.726;-2.108;2023-04-06T04:45:51;18.13;;;13.35;;
28934;SDS011;16044;52.726;-2.108;2023-04-06T04:48:18;18.90;;;13.60;;
28934;SDS011;16044;52.726;-2.108;2023-04-06T04:50:45;19.10;;;13.48;;
28934;SDS011;16044;52.726;-2.108;2023-04-06T04:53:12;16.85;;;12.70;;
28934;SDS011;16044;52.726;-2.108;2023-04-06T04:55:39;17.08;;;13.25;;
28934;SDS011;16044;52.726;-2.108;2023-04-06T04:58:07;18.00;;;13.05;;
28934;SDS011;16044;52.726;-2.108;2023-04-06T05:00:35;15.45;;;11.65;;
28934;SDS011;16044;52.726;-2.108;2023-04-06T05:03:02;18.98;;;13.27;;
28934;SDS011;16044;52.726;-2.108;2023-04-06T05:05:31;16.70;;;11.93;;
28934;SDS011;16044;52.726;-2.108;2023-04-06T05:07:58;16.92;;;12.00;;
28934;SDS011;16044;52.726;-2.108;2023-04-06T05:10:25;13.57;;;10.40;;
28934;SDS011;16044;52.726;-2.108;2023-04-06T05:12:52;15.80;;;10.77;;
28934;SDS011;16044;52.726;-2.108;2023-04-06T05:15:19;13.98;;;10.15;;
28934;SDS011;16044;52.726;-2.108;2023-04-06T05:17:46;12.27;;;8.73;;
28934;SDS011;16044;52.726;-2.108;2023-04-06T05:20:13;13.75;;;9.07;;
28934;SDS011;16044;52.726;-2.108;2023-04-06T05:22:41;15.52;;;10.60;;
28934;SDS011;16044;52.726;-2.108;2023-04-06T05:25:08;17.20;;;9.95;;
28934;SDS011;16044;52.726;-2.108;2023-04-06T05:27:35;12.98;;;8.88;;
28934;SDS011;16044;52.726;-2.108;2023-04-06T05:30:02;11.63;;;8.48;;
28934;SDS011;16044;52.726;-2.108;2023-04-06T05:32:29;13.43;;;9.02;;
28934;SDS011;16044;52.726;-2.108;2023-04-06T05:34:56;11.43;;;8.20;;
28934;SDS011;16044;52.726;-2.108;2023-04-06T05:37:24;15.93;;;9.23;;
28934;SDS011;16044;52.726;-2.108;2023-04-06T05:39:51;13.57;;;8.65;;
28934;SDS011;16044;52.726;-2.108;2023-04-06T05:42:17;12.05;;;8.43;;
28934;SDS011;16044;52.726;-2.108;2023-04-06T05:44:44;11.77;;;8.02;;
28934;SDS011;16044;52.726;-2.108;2023-04-06T05:47:11;13.43;;;7.93;;
28934;SDS011;16044;52.726;-2.108;2023-04-06T05:49:39;13.32;;;7.68;;
28934;SDS011;16044;52.726;-2.108;2023-04-06T05:52:08;10.30;;;7.55;;
28934;SDS011;16044;52.726;-2.108;2023-04-06T05:54:36;11.95;;;6.68;;
28934;SDS011;16044;52.726;-2.108;2023-04-06T05:57:03;12.02;;;6.78;;
28934;SDS011;16044;52.726;-2.108;2023-04-06T05:59:31;12.48;;;6.70;;
28934;SDS011;16044;52.726;-2.108;2023-04-06T06:01:58;8.98;;;4.72;;
28934;SDS011;16044;52.726;-2.108;2023-04-06T06:04:27;9.65;;;4.13;;
28934;SDS011;16044;52.726;-2.108;2023-04-06T06:06:54;7.53;;;3.90;;
28934;SDS011;16044;52.726;-2.108;2023-04-06T06:09:21;5.63;;;3.40;;
28934;SDS011;16044;52.726;-2.108;2023-04-06T06:11:48;5.45;;;3.50;;
28934;SDS011;16044;52.726;-2.108;2023-04-06T06:14:16;5.72;;;3.17;;
28934;SDS011;16044;52.726;-2.108;2023-04-06T06:16:44;4.82;;;3.30;;
28934;SDS011;16044;52.726;-2.108;2023-04-06T06:19:11;5.78;;;3.10;;
28934;SDS011;16044;52.726;-2.108;2023-04-06T06:21:41;5.68;;;3.70;;
28934;SDS011;16044;52.726;-2.108;2023-04-06T06:24:08;5.43;;;2.67;;
28934;SDS011;16044;52.726;-2.108;2023-04-06T06:26:36;4.03;;;2.92;;
28934;SDS011;16044;52.726;-2.108;2023-04-06T06:29:03;7.53;;;3.25;;
28934;SDS011;16044;52.726;-2.108;2023-04-06T06:31:32;7.50;;;3.45;;
28934;SDS011;16044;52.726;-2.108;2023-04-06T06:33:59;6.22;;;4.13;;
28934;SDS011;16044;52.726;-2.108;2023-04-06T06:36:26;5.85;;;3.90;;
28934;SDS011;16044;52.726;-2.108;2023-04-06T06:38:53;6.30;;;3.58;;
28934;SDS011;16044;52.726;-2.108;2023-04-06T06:41:20;8.68;;;4.03;;
28934;SDS011;16044;52.726;-2.108;2023-04-06T06:43:47;6.47;;;3.95;;
28934;SDS011;16044;52.726;-2.108;2023-04-06T06:46:14;8.25;;;4.63;;
28934;SDS011;16044;52.726;-2.108;2023-04-06T06:48:41;9.93;;;5.25;;
28934;SDS011;16044;52.726;-2.108;2023-04-06T06:51:08;10.70;;;6.28;;
28934;SDS011;16044;52.726;-2.108;2023-04-06T06:53:38;12.68;;;7.05;;
28934;SDS011;16044;52.726;-2.108;2023-04-06T06:56:05;10.25;;;6.10;;
28934;SDS011;16044;52.726;-2.108;2023-04-06T06:58:32;12.10;;;7.40;;
28934;SDS011;16044;52.726;-2.108;2023-04-06T07:00:59;16.40;;;7.32;;
28934;SDS011;16044;52.726;-2.108;2023-04-06T07:03:27;13.52;;;7.82;;
28934;SDS011;16044;52.726;-2.108;2023-04-06T07:05:55;17.98;;;8.35;;
28934;SDS011;16044;52.726;-2.108;2023-04-06T07:08:22;15.70;;;7.38;;
28934;SDS011;16044;52.726;-2.108;2023-04-06T07:10:51;14.07;;;7.10;;
28934;SDS011;16044;52.726;-2.108;2023-04-06T07:13:19;14.70;;;7.18;;
28934;SDS011;16044;52.726;-2.108;2023-04-06T07:15:49;15.80;;;6.53;;
28934;SDS011;16044;52.726;-2.108;2023-04-06T07:18:18;16.63;;;6.00;;
28934;SDS011;16044;52.726;-2.108;2023-04-06T07:20:46;13.90;;;5.65;;
28934;SDS011;16044;52.726;-2.108;2023-04-06T07:23:13;14.38;;;5.75;;
28934;SDS011;16044;52.726;-2.108;2023-04-06T07:25:40;9.82;;;5.32;;
28934;SDS011;16044;52.726;-2.108;2023-04-06T07:28:08;17.65;;;6.00;;
28934;SDS011;16044;52.726;-2.108;2023-04-06T07:30:36;13.85;;;6.28;;
28934;SDS011;16044;52.726;-2.108;2023-04-06T07:33:04;15.25;;;6.03;;
28934;SDS011;16044;52.726;-2.108;2023-04-06T07:35:32;14.88;;;5.57;;
28934;SDS011;16044;52.726;-2.108;2023-04-06T07:37:59;14.40;;;5.35;;
28934;SDS011;16044;52.726;-2.108;2023-04-06T07:40:26;16.67;;;5.93;;
28934;SDS011;16044;52.726;-2.108;2023-04-06T07:42:53;17.73;;;5.70;;
28934;SDS011;16044;52.726;-2.108;2023-04-06T07:45:23;15.23;;;4.75;;
28934;SDS011;16044;52.726;-2.108;2023-04-06T07:47:50;16.15;;;4.82;;
28934;SDS011;16044;52.726;-2.108;2023-04-06T07:50:17;13.77;;;4.55;;
28934;SDS011;16044;52.726;-2.108;2023-04-06T07:52:44;17.92;;;4.03;;
28934;SDS011;16044;52.726;-2.108;2023-04-06T07:55:11;16.73;;;4.70;;
28934;SDS011;16044;52.726;-2.108;2023-04-06T07:57:38;14.38;;;4.45;;
28934;SDS011;16044;52.726;-2.108;2023-04-06T08:00:05;11.45;;;4.57;;
28934;SDS011;16044;52.726;-2.108;2023-04-06T08:02:35;13.77;;;4.00;;
28934;SDS011;16044;52.726;-2.108;2023-04-06T08:05:02;14.27;;;4.50;;
28934;SDS011;16044;52.726;-2.108;2023-04-06T08:07:29;11.38;;;4.10;;
28934;SDS011;16044;52.726;-2.108;2023-04-06T08:09:56;16.92;;;3.47;;
28934;SDS011;16044;52.726;-2.108;2023-04-06T08:12:23;14.57;;;3.67;;
28934;SDS011;16044;52.726;-2.108;2023-04-06T08:14:50;11.93;;;3.45;;
28934;SDS011;16044;52.726;-2.108;2023-04-06T08:17:17;15.45;;;3.30;;
28934;SDS011;16044;52.726;-2.108;2023-04-06T08:19:44;9.02;;;3.03;;
28934;SDS011;16044;52.726;-2.108;2023-04-06T08:22:12;14.00;;;3.53;;
28934;SDS011;16044;52.726;-2.108;2023-04-06T08:24:39;8.57;;;2.90;;
28934;SDS011;16044;52.726;-2.108;2023-04-06T08:27:06;11.35;;;3.20;;
28934;SDS011;16044;52.726;-2.108;2023-04-06T08:29:34;14.20;;;3.25;;
28934;SDS011;16044;52.726;-2.108;2023-04-06T08:32:00;14.20;;;3.10;;
28934;SDS011;16044;52.726;-2.108;2023-04-06T08:34:32;16.85;;;3.60;;
28934;SDS011;16044;52.726;-2.108;2023-04-06T08:37:00;16.88;;;3.38;;
28934;SDS011;16044;52.726;-2.108;2023-04-06T08:39:27;11.63;;;3.17;;
28934;SDS011;16044;52.726;-2.108;2023-04-06T08:41:57;12.68;;;3.28;;
28934;SDS011;16044;52.726;-2.108;2023-04-06T08:44:26;13.32;;;3.40;;
28934;SDS011;16044;52.726;-2.108;2023-04-06T08:46:53;14.95;;;3.70;;
28934;SDS011;16044;52.726;-2.108;2023-04-06T08:49:21;13.23;;;3.50;;
28934;SDS011;16044;52.726;-2.108;2023-04-06T08:51:49;9.60;;;2.83;;
28934;SDS011;16044;52.726;-2.108;2023-04-06T08:54:17;9.75;;;3.08;;
28934;SDS011;16044;52.726;-2.108;2023-04-06T08:56:44;12.48;;;3.35;;
28934;SDS011;16044;52.726;-2.108;2023-04-06T08:59:12;13.70;;;3.47;;
28934;SDS011;16044;52.726;-2.108;2023-04-06T09:01:40;15.02;;;3.63;;
28934;SDS011;16044;52.726;-2.108;2023-04-06T09:04:09;11.15;;;3.20;;
28934;SDS011;16044;52.726;-2.108;2023-04-06T09:06:39;9.43;;;3.22;;
28934;SDS011;16044;52.726;-2.108;2023-04-06T09:09:07;12.70;;;3.03;;
28934;SDS011;16044;52.726;-2.108;2023-04-06T09:11:44;11.15;;;3.03;;
28934;SDS011;16044;52.726;-2.108;2023-04-06T09:14:16;10.77;;;3.00;;
28934;SDS011;16044;52.726;-2.108;2023-04-06T09:16:44;15.52;;;3.05;;
28934;SDS011;16044;52.726;-2.108;2023-04-06T09:19:12;8.45;;;2.47;;
28934;SDS011;16044;52.726;-2.108;2023-04-06T09:21:39;9.38;;;2.55;;
28934;SDS011;16044;52.726;-2.108;2023-04-06T09:24:07;10.60;;;2.72;;
28934;SDS011;16044;52.726;-2.108;2023-04-06T09:26:45;13.20;;;3.53;;
28934;SDS011;16044;52.726;-2.108;2023-04-06T09:29:23;9.55;;;3.28;;
28934;SDS011;16044;52.726;-2.108;2023-04-06T09:34:32;15.02;;;3.60;;
28934;SDS011;16044;52.726;-2.108;2023-04-06T09:37:00;15.77;;;3.90;;
28934;SDS011;16044;52.726;-2.108;2023-04-06T09:39:38;16.13;;;3.70;;
28934;SDS011;16044;52.726;-2.108;2023-04-06T09:42:06;11.95;;;3.00;;
28934;SDS011;16044;52.726;-2.108;2023-04-06T09:44:33;10.77;;;2.90;;
28934;SDS011;16044;52.726;-2.108;2023-04-06T09:46:59;15.95;;;3.13;;
28934;SDS011;16044;52.726;-2.108;2023-04-06T09:49:28;15.48;;;2.83;;
28934;SDS011;16044;52.726;-2.108;2023-04-06T09:52:04;7.68;;;1.98;;
28934;SDS011;16044;52.726;-2.108;2023-04-06T09:54:33;9.90;;;2.42;;
28934;SDS011;16044;52.726;-2.108;2023-04-06T09:57:11;11.25;;;2.58;;
28934;SDS011;16044;52.726;-2.108;2023-04-06T09:59:56;13.68;;;2.80;;
28934;SDS011;16044;52.726;-2.108;2023-04-06T10:05:42;11.25;;;2.60;;
28934;SDS011;16044;52.726;-2.108;2023-04-06T10:08:17;10.38;;;2.40;;
28934;SDS011;16044;52.726;-2.108;2023-04-06T10:10:47;10.02;;;2.40;;
28934;SDS011;16044;52.726;-2.108;2023-04-06T10:13:15;13.27;;;2.25;;
28934;SDS011;16044;52.726;-2.108;2023-04-06T10:15:43;9.95;;;2.13;;
28934;SDS011;16044;52.726;-2.108;2023-04-06T10:18:10;11.40;;;1.95;;
28934;SDS011;16044;52.726;-2.108;2023-04-06T10:20:55;11.38;;;1.70;;
28934;SDS011;16044;52.726;-2.108;2023-04-06T10:26:16;9.98;;;2.00;;
28934;SDS011;16044;52.726;-2.108;2023-04-06T10:28:47;9.68;;;1.85;;
28934;SDS011;16044;52.726;-2.108;2023-04-06T10:31:23;12.57;;;2.17;;
28934;SDS011;16044;52.726;-2.108;2023-04-06T10:33:54;10.70;;;2.00;;
28934;SDS011;16044;52.726;-2.108;2023-04-06T10:36:31;17.45;;;2.58;;
28934;SDS011;16044;52.726;-2.108;2023-04-06T10:39:01;10.60;;;2.08;;
28934;SDS011;16044;52.726;-2.108;2023-04-06T10:41:43;11.05;;;2.00;;
28934;SDS011;16044;52.726;-2.108;2023-04-06T10:44:20;15.70;;;2.25;;
28934;SDS011;16044;52.726;-2.108;2023-04-06T10:46:55;15.53;;;2.47;;
28934;SDS011;16044;52.726;-2.108;2023-04-06T10:49:27;14.55;;;1.83;;
28934;SDS011;16044;52.726;-2.108;2023-04-06T10:51:54;12.73;;;2.35;;
28934;SDS011;16044;52.726;-2.108;2023-04-06T10:54:23;8.65;;;2.38;;
28934;SDS011;16044;52.726;-2.108;2023-04-06T10:56:52;10.75;;;1.90;;
28934;SDS011;16044;52.726;-2.108;2023-04-06T10:59:20;15.45;;;2.13;;
28934;SDS011;16044;52.726;-2.108;2023-04-06T11:01:48;13.10;;;2.03;;
28934;SDS011;16044;52.726;-2.108;2023-04-06T11:04:16;12.38;;;1.95;;
28934;SDS011;16044;52.726;-2.108;2023-04-06T11:06:48;13.77;;;2.10;;
28934;SDS011;16044;52.726;-2.108;2023-04-06T11:09:29;10.60;;;2.10;;
28934;SDS011;16044;52.726;-2.108;2023-04-06T11:11:58;12.75;;;2.05;;
28934;SDS011;16044;52.726;-2.108;2023-04-06T11:14:24;13.23;;;1.90;;
28934;SDS011;16044;52.726;-2.108;2023-04-06T11:16:53;12.10;;;2.10;;
28934;SDS011;16044;52.726;-2.108;2023-04-06T11:19:20;10.20;;;2.05;;
28934;SDS011;16044;52.726;-2.108;2023-04-06T11:21:47;11.45;;;2.22;;
28934;SDS011;16044;52.726;-2.108;2023-04-06T11:26:57;13.55;;;2.15;;
28934;SDS011;16044;52.726;-2.108;2023-04-06T11:29:28;16.10;;;2.28;;
28934;SDS011;16044;52.726;-2.108;2023-04-06T11:32:01;6.22;;;1.45;;
28934;SDS011;16044;52.726;-2.108;2023-04-06T11:34:30;11.75;;;1.63;;
28934;SDS011;16044;52.726;-2.108;2023-04-06T11:37:04;14.15;;;2.03;;
28934;SDS011;16044;52.726;-2.108;2023-04-06T11:39:39;10.40;;;1.80;;
28934;SDS011;16044;52.726;-2.108;2023-04-06T11:42:21;8.60;;;1.40;;
28934;SDS011;16044;52.726;-2.108;2023-04-06T11:44:50;10.73;;;2.28;;
28934;SDS011;16044;52.726;-2.108;2023-04-06T11:47:32;13.65;;;1.88;;
28934;SDS011;16044;52.726;-2.108;2023-04-06T11:50:08;9.35;;;1.70;;
28934;SDS011;16044;52.726;-2.108;2023-04-06T11:52:40;13.23;;;2.15;;
28934;SDS011;16044;52.726;-2.108;2023-04-06T11:57:41;12.80;;;2.13;;
28934;SDS011;16044;52.726;-2.108;2023-04-06T12:00:09;13.50;;;1.85;;
28934;SDS011;16044;52.726;-2.108;2023-04-06T12:02:38;9.23;;;1.98;;
28934;SDS011;16044;52.726;-2.108;2023-04-06T12:05:06;11.70;;;1.90;;
28934;SDS011;16044;52.726;-2.108;2023-04-06T12:07:34;12.80;;;1.98;;
28934;SDS011;16044;52.726;-2.108;2023-04-06T12:10:02;14.77;;;2.00;;
28934;SDS011;16044;52.726;-2.108;2023-04-06T12:12:30;16.05;;;1.90;;
28934;SDS011;16044;52.726;-2.108;2023-04-06T12:14:57;12.60;;;1.88;;
28934;SDS011;16044;52.726;-2.108;2023-04-06T12:17:25;10.30;;;1.88;;
28934;SDS011;16044;52.726;-2.108;2023-04-06T12:19:52;13.02;;;1.80;;
28934;SDS011;16044;52.726;-2.108;2023-04-06T12:22:19;13.52;;;2.28;;
28934;SDS011;16044;52.726;-2.108;2023-04-06T12:24:46;10.45;;;1.90;;
28934;SDS011;16044;52.726;-2.108;2023-04-06T12:27:13;9.60;;;1.70;;
28934;SDS011;16044;52.726;-2.108;2023-04-06T12:29:40;11.07;;;1.70;;
28934;SDS011;16044;52.726;-2.108;2023-04-06T12:32:07;10.30;;;1.45;;
28934;SDS011;16044;52.726;-2.108;2023-04-06T12:34:34;7.35;;;1.25;;
28934;SDS011;16044;52.726;-2.108;2023-04-06T12:37:01;10.85;;;2.08;;
28934;SDS011;16044;52.726;-2.108;2023-04-06T12:39:29;8.23;;;1.88;;
28934;SDS011;16044;52.726;-2.108;2023-04-06T12:41:56;9.52;;;1.63;;
28934;SDS011;16044;52.726;-2.108;2023-04-06T12:44:23;7.07;;;1.30;;
28934;SDS011;16044;52.726;-2.108;2023-04-06T12:46:52;9.93;;;1.75;;
28934;SDS011;16044;52.726;-2.108;2023-04-06T12:49:19;10.18;;;1.65;;
28934;SDS011;16044;52.726;-2.108;2023-04-06T12:51:46;9.48;;;1.65;;
28934;SDS011;16044;52.726;-2.108;2023-04-06T12:54:13;13.38;;;1.30;;
28934;SDS011;16044;52.726;-2.108;2023-04-06T12:56:40;11.35;;;1.63;;
28934;SDS011;16044;52.726;-2.108;2023-04-06T12:59:07;8.85;;;1.80;;
28934;SDS011;16044;52.726;-2.108;2023-04-06T13:01:34;7.63;;;1.25;;
28934;SDS011;16044;52.726;-2.108;2023-04-06T13:04:01;11.00;;;1.45;;
28934;SDS011;16044;52.726;-2.108;2023-04-06T13:06:28;12.13;;;1.88;;
28934;SDS011;16044;52.726;-2.108;2023-04-06T13:08:56;12.05;;;1.67;;
28934;SDS011;16044;52.726;-2.108;2023-04-06T13:11:23;9.43;;;1.60;;
28934;SDS011;16044;52.726;-2.108;2023-04-06T13:13:54;8.32;;;1.40;;
28934;SDS011;16044;52.726;-2.108;2023-04-06T13:16:21;8.73;;;1.63;;
28934;SDS011;16044;52.726;-2.108;2023-04-06T13:18:48;9.48;;;1.38;;
28934;SDS011;16044;52.726;-2.108;2023-04-06T13:21:16;11.85;;;1.70;;
28934;SDS011;16044;52.726;-2.108;2023-04-06T13:23:43;6.00;;;1.40;;
28934;SDS011;16044;52.726;-2.108;2023-04-06T13:26:10;10.93;;;1.98;;
28934;SDS011;16044;52.726;-2.108;2023-04-06T13:28:40;11.70;;;1.52;;
28934;SDS011;16044;52.726;-2.108;2023-04-06T13:31:07;9.10;;;1.80;;
28934;SDS011;16044;52.726;-2.108;2023-04-06T13:33:36;12.30;;;2.10;;
28934;SDS011;16044;52.726;-2.108;2023-04-06T13:36:03;11.70;;;1.85;;
28934;SDS011;16044;52.726;-2.108;2023-04-06T13:38:32;11.65;;;1.83;;
28934;SDS011;16044;52.726;-2.108;2023-04-06T13:41:00;10.63;;;2.90;;
28934;SDS011;16044;52.726;-2.108;2023-04-06T13:43:27;7.97;;;2.13;;
28934;SDS011;16044;52.726;-2.108;2023-04-06T13:45:54;10.45;;;2.58;;
28934;SDS011;16044;52.726;-2.108;2023-04-06T13:48:22;10.77;;;1.90;;
28934;SDS011;16044;52.726;-2.108;2023-04-06T13:50:50;14.05;;;2.50;;
28934;SDS011;16044;52.726;-2.108;2023-04-06T13:53:17;12.07;;;2.10;;
28934;SDS011;16044;52.726;-2.108;2023-04-06T13:55:47;13.63;;;2.28;;
28934;SDS011;16044;52.726;-2.108;2023-04-06T13:58:20;10.95;;;1.80;;
28934;SDS011;16044;52.726;-2.108;2023-04-06T14:00:47;13.27;;;2.08;;
28934;SDS011;16044;52.726;-2.108;2023-04-06T14:03:14;16.58;;;2.38;;
28934;SDS011;16044;52.726;-2.108;2023-04-06T14:05:41;12.02;;;1.80;;
28934;SDS011;16044;52.726;-2.108;2023-04-06T14:08:08;8.25;;;1.67;;
28934;SDS011;16044;52.726;-2.108;2023-04-06T14:10:36;12.85;;;1.80;;
28934;SDS011;16044;52.726;-2.108;2023-04-06T14:13:09;12.00;;;2.00;;
28934;SDS011;16044;52.726;-2.108;2023-04-06T14:15:36;13.27;;;2.10;;
28934;SDS011;16044;52.726;-2.108;2023-04-06T14:18:03;10.75;;;1.85;;
28934;SDS011;16044;52.726;-2.108;2023-04-06T14:20:31;11.52;;;1.70;;
28934;SDS011;16044;52.726;-2.108;2023-04-06T14:22:59;7.95;;;1.13;;
28934;SDS011;16044;52.726;-2.108;2023-04-06T14:25:30;8.75;;;1.25;;
28934;SDS011;16044;52.726;-2.108;2023-04-06T14:27:58;6.78;;;1.25;;
28934;SDS011;16044;52.726;-2.108;2023-04-06T14:30:25;10.52;;;1.52;;
28934;SDS011;16044;52.726;-2.108;2023-04-06T14:32:56;9.88;;;1.50;;
28934;SDS011;16044;52.726;-2.108;2023-04-06T14:35:24;11.43;;;1.20;;
28934;SDS011;16044;52.726;-2.108;2023-04-06T14:37:55;5.47;;;1.10;;